sensor_id;sensor_type;location;lat;lon;timestamp;temperature;humidity
38592;DHT22;24356;48.460;11.450;2022-08-02T00:00:13;19.70;76.50
38592;DHT22;24356;48.460;11.450;2022-08-02T00:02:43;19.70;76.70
38592;DHT22;24356;48.460;11.450;2022-08-02T00:05:10;19.70;76.70
38592;DHT22;24356;48.460;11.450;2022-08-02T00:07:36;19.60;76.70
38592;DHT22;24356;48.460;11.450;2022-08-02T00:10:03;19.60;76.50
38592;DHT22;24356;48.460;11.450;2022-08-02T00:12:30;19.60;76.70
38592;DHT22;24356;48.460;11.450;2022-08-02T00:14:56;19.60;76.50
38592;DHT22;24356;48.460;11.450;2022-08-02T00:17:22;19.60;76.70
38592;DHT22;24356;48.460;11.450;2022-08-02T00:19:47;19.60;76.70
38592;DHT22;24356;48.460;11.450;2022-08-02T00:22:13;19.50;76.80
38592;DHT22;24356;48.460;11.450;2022-08-02T00:24:39;19.50;76.90
38592;DHT22;24356;48.460;11.450;2022-08-02T00:27:04;19.50;76.90
38592;DHT22;24356;48.460;11.450;2022-08-02T00:29:33;19.50;76.80
38592;DHT22;24356;48.460;11.450;2022-08-02T00:31:58;19.50;76.80
38592;DHT22;24356;48.460;11.450;2022-08-02T00:34:24;19.50;76.90
38592;DHT22;24356;48.460;11.450;2022-08-02T00:36:50;19.50;76.90
38592;DHT22;24356;48.460;11.450;2022-08-02T00:39:16;19.50;76.90
38592;DHT22;24356;48.460;11.450;2022-08-02T00:41:46;19.40;77.00
38592;DHT22;24356;48.460;11.450;2022-08-02T00:44:16;19.40;77.00
38592;DHT22;24356;48.460;11.450;2022-08-02T00:46:44;19.40;77.40
38592;DHT22;24356;48.460;11.450;2022-08-02T00:49:10;19.40;77.10
38592;DHT22;24356;48.460;11.450;2022-08-02T00:51:38;19.40;77.20
38592;DHT22;24356;48.460;11.450;2022-08-02T00:54:04;19.40;77.10
38592;DHT22;24356;48.460;11.450;2022-08-02T00:56:30;19.40;77.20
38592;DHT22;24356;48.460;11.450;2022-08-02T00:58:56;19.30;77.20
38592;DHT22;24356;48.460;11.450;2022-08-02T01:01:21;19.30;77.20
38592;DHT22;24356;48.460;11.450;2022-08-02T01:04:13;19.30;77.30
38592;DHT22;24356;48.460;11.450;2022-08-02T01:06:40;19.30;77.40
38592;DHT22;24356;48.460;11.450;2022-08-02T01:09:06;19.30;77.40
38592;DHT22;24356;48.460;11.450;2022-08-02T01:11:33;19.30;77.40
38592;DHT22;24356;48.460;11.450;2022-08-02T01:14:08;19.20;77.50
38592;DHT22;24356;48.460;11.450;2022-08-02T01:16:59;19.20;77.60
38592;DHT22;24356;48.460;11.450;2022-08-02T01:19:42;19.20;77.40
38592;DHT22;24356;48.460;11.450;2022-08-02T01:30:26;19.10;78.00
38592;DHT22;24356;48.460;11.450;2022-08-02T01:32:54;19.10;77.90
38592;DHT22;24356;48.460;11.450;2022-08-02T01:35:29;19.10;77.90
38592;DHT22;24356;48.460;11.450;2022-08-02T01:38:06;19.10;78.00
38592;DHT22;24356;48.460;11.450;2022-08-02T01:40:36;19.10;77.80
38592;DHT22;24356;48.460;11.450;2022-08-02T01:43:05;19.10;77.80
38592;DHT22;24356;48.460;11.450;2022-08-02T01:45:33;19.10;78.10
38592;DHT22;24356;48.460;11.450;2022-08-02T01:48:00;19.10;78.00
38592;DHT22;24356;48.460;11.450;2022-08-02T01:50:31;19.00;77.90
38592;DHT22;24356;48.460;11.450;2022-08-02T01:53:02;19.00;78.10
38592;DHT22;24356;48.460;11.450;2022-08-02T01:55:50;19.00;78.10
38592;DHT22;24356;48.460;11.450;2022-08-02T01:58:19;19.00;78.10
38592;DHT22;24356;48.460;11.450;2022-08-02T02:00:46;19.00;78.00
38592;DHT22;24356;48.460;11.450;2022-08-02T02:03:20;19.00;78.00
38592;DHT22;24356;48.460;11.450;2022-08-02T02:05:47;19.00;78.00
38592;DHT22;24356;48.460;11.450;2022-08-02T02:08:15;19.00;78.10
38592;DHT22;24356;48.460;11.450;2022-08-02T02:10:44;19.00;78.00
38592;DHT22;24356;48.460;11.450;2022-08-02T02:13:16;19.00;77.90
38592;DHT22;24356;48.460;11.450;2022-08-02T02:15:45;19.00;78.40
38592;DHT22;24356;48.460;11.450;2022-08-02T02:18:19;18.90;78.20
38592;DHT22;24356;48.460;11.450;2022-08-02T02:20:46;18.90;78.10
38592;DHT22;24356;48.460;11.450;2022-08-02T02:23:12;18.90;78.10
38592;DHT22;24356;48.460;11.450;2022-08-02T02:25:40;18.90;78.20
38592;DHT22;24356;48.460;11.450;2022-08-02T02:28:11;18.80;78.20
38592;DHT22;24356;48.460;11.450;2022-08-02T02:30:44;18.80;78.20
38592;DHT22;24356;48.460;11.450;2022-08-02T02:33:12;18.80;78.20
38592;DHT22;24356;48.460;11.450;2022-08-02T02:35:41;18.80;78.20
38592;DHT22;24356;48.460;11.450;2022-08-02T02:38:11;18.80;78.40
38592;DHT22;24356;48.460;11.450;2022-08-02T02:40:39;18.80;78.30
38592;DHT22;24356;48.460;11.450;2022-08-02T02:43:05;18.80;78.30
38592;DHT22;24356;48.460;11.450;2022-08-02T02:45:32;18.80;78.40
38592;DHT22;24356;48.460;11.450;2022-08-02T02:47:59;18.80;78.20
38592;DHT22;24356;48.460;11.450;2022-08-02T02:50:26;18.80;78.30
38592;DHT22;24356;48.460;11.450;2022-08-02T02:52:52;18.80;78.30
38592;DHT22;24356;48.460;11.450;2022-08-02T02:55:19;18.80;78.20
38592;DHT22;24356;48.460;11.450;2022-08-02T02:57:46;18.80;78.30
38592;DHT22;24356;48.460;11.450;2022-08-02T03:00:13;18.80;78.20
38592;DHT22;24356;48.460;11.450;2022-08-02T03:02:42;18.80;78.20
38592;DHT22;24356;48.460;11.450;2022-08-02T03:05:09;18.80;78.20
38592;DHT22;24356;48.460;11.450;2022-08-02T03:07:35;18.80;78.20
38592;DHT22;24356;48.460;11.450;2022-08-02T03:10:04;18.70;78.20
38592;DHT22;24356;48.460;11.450;2022-08-02T03:12:30;18.70;78.30
38592;DHT22;24356;48.460;11.450;2022-08-02T03:15:01;18.70;78.10
38592;DHT22;24356;48.460;11.450;2022-08-02T03:17:40;18.70;78.20
38592;DHT22;24356;48.460;11.450;2022-08-02T03:20:09;18.70;78.20
38592;DHT22;24356;48.460;11.450;2022-08-02T03:22:35;18.70;78.30
38592;DHT22;24356;48.460;11.450;2022-08-02T03:25:00;18.70;78.30
38592;DHT22;24356;48.460;11.450;2022-08-02T03:27:26;18.70;78.30
38592;DHT22;24356;48.460;11.450;2022-08-02T03:29:52;18.60;78.20
38592;DHT22;24356;48.460;11.450;2022-08-02T03:32:17;18.60;78.50
38592;DHT22;24356;48.460;11.450;2022-08-02T03:34:44;18.60;78.30
38592;DHT22;24356;48.460;11.450;2022-08-02T03:37:10;18.60;78.50
38592;DHT22;24356;48.460;11.450;2022-08-02T03:39:38;18.60;78.50
38592;DHT22;24356;48.460;11.450;2022-08-02T03:42:04;18.60;78.50
38592;DHT22;24356;48.460;11.450;2022-08-02T03:44:30;18.60;78.50
38592;DHT22;24356;48.460;11.450;2022-08-02T03:46:57;18.60;78.70
38592;DHT22;24356;48.460;11.450;2022-08-02T03:49:23;18.60;78.50
38592;DHT22;24356;48.460;11.450;2022-08-02T03:51:50;18.60;78.50
38592;DHT22;24356;48.460;11.450;2022-08-02T03:54:16;18.50;78.50
38592;DHT22;24356;48.460;11.450;2022-08-02T03:56:42;18.50;78.70
38592;DHT22;24356;48.460;11.450;2022-08-02T03:59:13;18.50;78.50
38592;DHT22;24356;48.460;11.450;2022-08-02T04:01:39;18.50;78.50
38592;DHT22;24356;48.460;11.450;2022-08-02T04:04:05;18.40;78.50
38592;DHT22;24356;48.460;11.450;2022-08-02T04:06:31;18.40;78.90
38592;DHT22;24356;48.460;11.450;2022-08-02T04:08:57;18.40;78.80
38592;DHT22;24356;48.460;11.450;2022-08-02T04:11:23;18.40;78.80
38592;DHT22;24356;48.460;11.450;2022-08-02T04:14:10;18.40;78.80
38592;DHT22;24356;48.460;11.450;2022-08-02T04:16:45;18.30;79.00
38592;DHT22;24356;48.460;11.450;2022-08-02T04:19:36;18.30;78.90
38592;DHT22;24356;48.460;11.450;2022-08-02T04:22:05;18.30;78.80
38592;DHT22;24356;48.460;11.450;2022-08-02T04:24:37;18.20;78.70
38592;DHT22;24356;48.460;11.450;2022-08-02T04:27:04;18.20;79.00
38592;DHT22;24356;48.460;11.450;2022-08-02T04:29:31;18.20;78.90
38592;DHT22;24356;48.460;11.450;2022-08-02T04:31:58;18.20;79.00
38592;DHT22;24356;48.460;11.450;2022-08-02T04:34:23;18.20;79.00
38592;DHT22;24356;48.460;11.450;2022-08-02T04:36:49;18.20;79.00
38592;DHT22;24356;48.460;11.450;2022-08-02T04:39:15;18.20;79.00
38592;DHT22;24356;48.460;11.450;2022-08-02T04:41:43;18.20;78.90
38592;DHT22;24356;48.460;11.450;2022-08-02T04:44:11;18.10;78.90
38592;DHT22;24356;48.460;11.450;2022-08-02T04:46:38;18.10;79.00
38592;DHT22;24356;48.460;11.450;2022-08-02T04:49:04;18.10;79.10
38592;DHT22;24356;48.460;11.450;2022-08-02T04:51:32;18.10;79.10
38592;DHT22;24356;48.460;11.450;2022-08-02T04:53:58;18.10;79.10
38592;DHT22;24356;48.460;11.450;2022-08-02T04:56:24;18.10;79.20
38592;DHT22;24356;48.460;11.450;2022-08-02T04:58:49;18.10;79.10
38592;DHT22;24356;48.460;11.450;2022-08-02T05:01:15;18.10;79.10
38592;DHT22;24356;48.460;11.450;2022-08-02T05:03:40;18.10;79.10
38592;DHT22;24356;48.460;11.450;2022-08-02T05:06:06;18.00;79.20
38592;DHT22;24356;48.460;11.450;2022-08-02T05:08:31;18.00;79.30
38592;DHT22;24356;48.460;11.450;2022-08-02T05:10:57;18.00;79.30
38592;DHT22;24356;48.460;11.450;2022-08-02T05:13:23;18.00;79.30
38592;DHT22;24356;48.460;11.450;2022-08-02T05:15:49;18.00;79.30
38592;DHT22;24356;48.460;11.450;2022-08-02T05:18:15;18.00;79.40
38592;DHT22;24356;48.460;11.450;2022-08-02T05:20:40;17.90;79.30
38592;DHT22;24356;48.460;11.450;2022-08-02T05:23:06;17.90;79.40
38592;DHT22;24356;48.460;11.450;2022-08-02T05:25:32;17.90;79.50
38592;DHT22;24356;48.460;11.450;2022-08-02T05:27:58;17.90;79.50
38592;DHT22;24356;48.460;11.450;2022-08-02T05:30:23;17.90;79.50
38592;DHT22;24356;48.460;11.450;2022-08-02T05:32:50;17.90;79.40
38592;DHT22;24356;48.460;11.450;2022-08-02T05:35:20;17.90;79.50
38592;DHT22;24356;48.460;11.450;2022-08-02T05:37:47;17.90;79.50
38592;DHT22;24356;48.460;11.450;2022-08-02T05:40:16;17.90;79.50
38592;DHT22;24356;48.460;11.450;2022-08-02T05:42:42;17.90;79.40
38592;DHT22;24356;48.460;11.450;2022-08-02T05:45:08;17.90;79.60
38592;DHT22;24356;48.460;11.450;2022-08-02T05:47:34;17.90;79.50
38592;DHT22;24356;48.460;11.450;2022-08-02T05:49:59;17.90;79.50
38592;DHT22;24356;48.460;11.450;2022-08-02T05:55:16;18.00;79.30
38592;DHT22;24356;48.460;11.450;2022-08-02T05:58:01;18.00;79.30
38592;DHT22;24356;48.460;11.450;2022-08-02T06:00:30;18.00;79.50
38592;DHT22;24356;48.460;11.450;2022-08-02T06:03:03;18.00;79.70
38592;DHT22;24356;48.460;11.450;2022-08-02T06:05:39;18.10;80.40
38592;DHT22;24356;48.460;11.450;2022-08-02T06:08:06;18.10;79.50
38592;DHT22;24356;48.460;11.450;2022-08-02T06:10:39;18.10;79.60
38592;DHT22;24356;48.460;11.450;2022-08-02T06:13:13;18.10;79.40
38592;DHT22;24356;48.460;11.450;2022-08-02T06:15:41;18.20;79.20
38592;DHT22;24356;48.460;11.450;2022-08-02T06:18:07;18.20;80.10
38592;DHT22;24356;48.460;11.450;2022-08-02T06:20:34;18.20;79.60
38592;DHT22;24356;48.460;11.450;2022-08-02T06:23:07;18.20;79.60
38592;DHT22;24356;48.460;11.450;2022-08-02T06:25:35;18.30;80.40
38592;DHT22;24356;48.460;11.450;2022-08-02T06:28:05;18.30;80.20
38592;DHT22;24356;48.460;11.450;2022-08-02T06:30:31;18.40;80.60
38592;DHT22;24356;48.460;11.450;2022-08-02T06:32:58;18.40;80.30
38592;DHT22;24356;48.460;11.450;2022-08-02T06:35:38;18.50;79.80
38592;DHT22;24356;48.460;11.450;2022-08-02T06:38:17;18.60;79.50
38592;DHT22;24356;48.460;11.450;2022-08-02T06:41:00;18.60;79.20
38592;DHT22;24356;48.460;11.450;2022-08-02T06:43:43;18.70;79.50
38592;DHT22;24356;48.460;11.450;2022-08-02T06:46:09;18.80;79.80
38592;DHT22;24356;48.460;11.450;2022-08-02T06:48:36;18.80;79.80
38592;DHT22;24356;48.460;11.450;2022-08-02T06:51:03;18.90;79.70
38592;DHT22;24356;48.460;11.450;2022-08-02T06:53:29;18.90;79.10
38592;DHT22;24356;48.460;11.450;2022-08-02T06:55:54;19.00;79.50
38592;DHT22;24356;48.460;11.450;2022-08-02T06:58:20;19.10;79.00
38592;DHT22;24356;48.460;11.450;2022-08-02T07:00:46;19.10;80.10
38592;DHT22;24356;48.460;11.450;2022-08-02T07:03:12;19.20;78.70
38592;DHT22;24356;48.460;11.450;2022-08-02T07:05:37;19.20;79.20
38592;DHT22;24356;48.460;11.450;2022-08-02T07:08:04;19.30;79.10
38592;DHT22;24356;48.460;11.450;2022-08-02T07:10:30;19.40;78.60
38592;DHT22;24356;48.460;11.450;2022-08-02T07:12:57;19.40;78.70
38592;DHT22;24356;48.460;11.450;2022-08-02T07:15:24;19.50;78.60
38592;DHT22;24356;48.460;11.450;2022-08-02T07:17:51;19.60;78.40
38592;DHT22;24356;48.460;11.450;2022-08-02T07:20:17;19.70;78.60
38592;DHT22;24356;48.460;11.450;2022-08-02T07:22:42;19.70;78.50
38592;DHT22;24356;48.460;11.450;2022-08-02T07:25:08;19.80;78.60
38592;DHT22;24356;48.460;11.450;2022-08-02T07:27:34;19.90;78.10
38592;DHT22;24356;48.460;11.450;2022-08-02T07:30:00;20.00;78.00
38592;DHT22;24356;48.460;11.450;2022-08-02T07:32:28;20.10;78.10
38592;DHT22;24356;48.460;11.450;2022-08-02T07:34:55;20.20;78.20
38592;DHT22;24356;48.460;11.450;2022-08-02T07:37:23;20.30;77.80
38592;DHT22;24356;48.460;11.450;2022-08-02T07:39:49;20.40;78.00
38592;DHT22;24356;48.460;11.450;2022-08-02T07:42:14;20.50;78.20
38592;DHT22;24356;48.460;11.450;2022-08-02T07:44:40;20.60;78.20
38592;DHT22;24356;48.460;11.450;2022-08-02T07:47:06;20.70;78.30
38592;DHT22;24356;48.460;11.450;2022-08-02T07:49:31;20.80;78.30
38592;DHT22;24356;48.460;11.450;2022-08-02T07:51:57;20.90;78.40
38592;DHT22;24356;48.460;11.450;2022-08-02T07:54:23;21.00;78.40
38592;DHT22;24356;48.460;11.450;2022-08-02T07:56:49;21.10;78.50
38592;DHT22;24356;48.460;11.450;2022-08-02T07:59:14;21.30;78.40
38592;DHT22;24356;48.460;11.450;2022-08-02T08:01:40;21.40;78.40
38592;DHT22;24356;48.460;11.450;2022-08-02T08:04:06;21.50;78.20
38592;DHT22;24356;48.460;11.450;2022-08-02T08:06:32;21.60;78.30
38592;DHT22;24356;48.460;11.450;2022-08-02T08:08:58;21.80;77.90
38592;DHT22;24356;48.460;11.450;2022-08-02T08:11:24;21.90;78.00
38592;DHT22;24356;48.460;11.450;2022-08-02T08:13:49;22.00;78.20
38592;DHT22;24356;48.460;11.450;2022-08-02T08:16:15;22.20;77.70
38592;DHT22;24356;48.460;11.450;2022-08-02T08:18:41;22.40;77.90
38592;DHT22;24356;48.460;11.450;2022-08-02T08:21:06;22.60;77.50
38592;DHT22;24356;48.460;11.450;2022-08-02T08:23:32;22.80;77.30
38592;DHT22;24356;48.460;11.450;2022-08-02T08:25:59;23.00;77.10
38592;DHT22;24356;48.460;11.450;2022-08-02T08:28:25;23.30;76.50
38592;DHT22;24356;48.460;11.450;2022-08-02T08:30:51;23.40;76.10
38592;DHT22;24356;48.460;11.450;2022-08-02T08:33:16;23.60;75.40
38592;DHT22;24356;48.460;11.450;2022-08-02T08:35:42;23.60;75.30
38592;DHT22;24356;48.460;11.450;2022-08-02T08:38:08;23.70;75.50
38592;DHT22;24356;48.460;11.450;2022-08-02T08:40:34;23.90;75.10
38592;DHT22;24356;48.460;11.450;2022-08-02T08:43:01;23.90;74.80
38592;DHT22;24356;48.460;11.450;2022-08-02T08:45:27;24.00;75.00
38592;DHT22;24356;48.460;11.450;2022-08-02T08:48:04;24.10;75.10
38592;DHT22;24356;48.460;11.450;2022-08-02T08:50:34;24.20;75.00
38592;DHT22;24356;48.460;11.450;2022-08-02T08:53:05;24.40;75.10
38592;DHT22;24356;48.460;11.450;2022-08-02T08:55:33;24.50;75.00
38592;DHT22;24356;48.460;11.450;2022-08-02T08:58:00;24.70;74.60
38592;DHT22;24356;48.460;11.450;2022-08-02T09:00:29;24.80;74.50
38592;DHT22;24356;48.460;11.450;2022-08-02T09:03:02;24.90;74.40
38592;DHT22;24356;48.460;11.450;2022-08-02T09:05:34;25.10;74.20
38592;DHT22;24356;48.460;11.450;2022-08-02T09:08:00;25.20;73.60
38592;DHT22;24356;48.460;11.450;2022-08-02T09:10:42;25.40;73.20
38592;DHT22;24356;48.460;11.450;2022-08-02T09:15:58;25.60;73.20
38592;DHT22;24356;48.460;11.450;2022-08-02T09:18:39;25.70;73.20
38592;DHT22;24356;48.460;11.450;2022-08-02T09:21:07;25.70;73.10
38592;DHT22;24356;48.460;11.450;2022-08-02T09:23:42;25.80;73.40
38592;DHT22;24356;48.460;11.450;2022-08-02T09:26:10;25.80;72.70
38592;DHT22;24356;48.460;11.450;2022-08-02T09:28:38;25.80;72.40
38592;DHT22;24356;48.460;11.450;2022-08-02T09:31:11;25.70;70.60
38592;DHT22;24356;48.460;11.450;2022-08-02T09:33:39;25.70;71.30
38592;DHT22;24356;48.460;11.450;2022-08-02T09:36:12;25.60;69.80
38592;DHT22;24356;48.460;11.450;2022-08-02T09:38:39;25.50;70.30
38592;DHT22;24356;48.460;11.450;2022-08-02T09:41:19;25.40;71.10
38592;DHT22;24356;48.460;11.450;2022-08-02T09:43:45;25.30;71.60
38592;DHT22;24356;48.460;11.450;2022-08-02T09:46:11;25.40;71.60
38592;DHT22;24356;48.460;11.450;2022-08-02T09:48:50;25.40;71.80
38592;DHT22;24356;48.460;11.450;2022-08-02T09:51:24;25.50;72.40
38592;DHT22;24356;48.460;11.450;2022-08-02T09:53:53;25.60;72.00
38592;DHT22;24356;48.460;11.450;2022-08-02T09:56:20;25.70;71.40
38592;DHT22;24356;48.460;11.450;2022-08-02T09:58:46;25.90;71.90
38592;DHT22;24356;48.460;11.450;2022-08-02T10:01:12;26.00;72.10
38592;DHT22;24356;48.460;11.450;2022-08-02T10:03:53;26.20;71.70
38592;DHT22;24356;48.460;11.450;2022-08-02T10:06:19;26.40;71.60
38592;DHT22;24356;48.460;11.450;2022-08-02T10:08:45;26.50;71.30
38592;DHT22;24356;48.460;11.450;2022-08-02T10:11:10;26.70;70.90
38592;DHT22;24356;48.460;11.450;2022-08-02T10:13:36;26.90;69.70
38592;DHT22;24356;48.460;11.450;2022-08-02T10:16:03;27.20;70.00
38592;DHT22;24356;48.460;11.450;2022-08-02T10:18:33;27.50;69.60
38592;DHT22;24356;48.460;11.450;2022-08-02T10:21:01;27.70;69.50
38592;DHT22;24356;48.460;11.450;2022-08-02T10:23:28;27.90;68.20
38592;DHT22;24356;48.460;11.450;2022-08-02T10:25:59;27.90;66.70
38592;DHT22;24356;48.460;11.450;2022-08-02T10:28:26;27.90;65.70
38592;DHT22;24356;48.460;11.450;2022-08-02T10:31:00;27.70;65.00
38592;DHT22;24356;48.460;11.450;2022-08-02T10:33:28;27.50;64.90
38592;DHT22;24356;48.460;11.450;2022-08-02T10:35:55;27.30;65.30
38592;DHT22;24356;48.460;11.450;2022-08-02T10:38:23;27.20;65.50
38592;DHT22;24356;48.460;11.450;2022-08-02T10:40:54;27.10;66.60
38592;DHT22;24356;48.460;11.450;2022-08-02T10:43:39;27.30;67.60
38592;DHT22;24356;48.460;11.450;2022-08-02T10:46:29;27.60;65.70
38592;DHT22;24356;48.460;11.450;2022-08-02T10:49:17;27.80;66.30
38592;DHT22;24356;48.460;11.450;2022-08-02T10:56:56;28.60;64.00
38592;DHT22;24356;48.460;11.450;2022-08-02T10:59:32;28.70;63.40
38592;DHT22;24356;48.460;11.450;2022-08-02T11:02:01;28.90;63.40
38592;DHT22;24356;48.460;11.450;2022-08-02T11:04:29;28.90;62.90
38592;DHT22;24356;48.460;11.450;2022-08-02T11:07:15;29.00;62.60
38592;DHT22;24356;48.460;11.450;2022-08-02T11:09:46;29.00;62.30
38592;DHT22;24356;48.460;11.450;2022-08-02T11:12:18;29.00;62.10
38592;DHT22;24356;48.460;11.450;2022-08-02T11:14:46;28.90;62.00
38592;DHT22;24356;48.460;11.450;2022-08-02T11:17:22;28.80;62.20
38592;DHT22;24356;48.460;11.450;2022-08-02T11:22:34;28.80;62.70
38592;DHT22;24356;48.460;11.450;2022-08-02T11:27:56;29.00;62.20
38592;DHT22;24356;48.460;11.450;2022-08-02T11:30:22;29.20;62.40
38592;DHT22;24356;48.460;11.450;2022-08-02T11:32:50;29.30;62.20
38592;DHT22;24356;48.460;11.450;2022-08-02T11:35:19;29.40;62.20
38592;DHT22;24356;48.460;11.450;2022-08-02T11:37:46;29.50;61.60
38592;DHT22;24356;48.460;11.450;2022-08-02T11:40:15;29.60;61.00
38592;DHT22;24356;48.460;11.450;2022-08-02T11:42:43;29.50;60.80
38592;DHT22;24356;48.460;11.450;2022-08-02T11:45:10;29.40;61.10
38592;DHT22;24356;48.460;11.450;2022-08-02T11:47:48;29.30;60.70
38592;DHT22;24356;48.460;11.450;2022-08-02T11:50:16;29.10;61.00
38592;DHT22;24356;48.460;11.450;2022-08-02T11:52:42;29.00;61.40
38592;DHT22;24356;48.460;11.450;2022-08-02T11:55:09;28.90;61.30
38592;DHT22;24356;48.460;11.450;2022-08-02T11:57:35;28.80;61.60
38592;DHT22;24356;48.460;11.450;2022-08-02T12:00:04;28.70;61.60
38592;DHT22;24356;48.460;11.450;2022-08-02T12:02:43;28.60;61.80
38592;DHT22;24356;48.460;11.450;2022-08-02T12:05:15;28.60;62.40
38592;DHT22;24356;48.460;11.450;2022-08-02T12:07:41;28.60;62.60
38592;DHT22;24356;48.460;11.450;2022-08-02T12:10:09;28.70;62.60
38592;DHT22;24356;48.460;11.450;2022-08-02T12:12:55;28.80;62.70
38592;DHT22;24356;48.460;11.450;2022-08-02T12:15:42;28.90;62.30
38592;DHT22;24356;48.460;11.450;2022-08-02T12:18:17;29.10;62.30
38592;DHT22;24356;48.460;11.450;2022-08-02T12:21:03;29.20;61.80
38592;DHT22;24356;48.460;11.450;2022-08-02T12:23:29;29.30;61.40
38592;DHT22;24356;48.460;11.450;2022-08-02T12:26:13;29.30;61.50
38592;DHT22;24356;48.460;11.450;2022-08-02T12:28:39;29.20;61.60
38592;DHT22;24356;48.460;11.450;2022-08-02T12:31:06;29.10;61.50
38592;DHT22;24356;48.460;11.450;2022-08-02T12:33:49;29.00;61.30
38592;DHT22;24356;48.460;11.450;2022-08-02T12:36:19;28.90;61.30
38592;DHT22;24356;48.460;11.450;2022-08-02T12:38:52;28.80;61.10
38592;DHT22;24356;48.460;11.450;2022-08-02T12:41:18;28.80;61.50
38592;DHT22;24356;48.460;11.450;2022-08-02T12:43:44;28.80;61.50
38592;DHT22;24356;48.460;11.450;2022-08-02T12:46:17;28.80;61.30
38592;DHT22;24356;48.460;11.450;2022-08-02T12:48:43;28.70;61.50
38592;DHT22;24356;48.460;11.450;2022-08-02T12:51:30;28.70;61.50
38592;DHT22;24356;48.460;11.450;2022-08-02T12:54:34;28.80;61.90
38592;DHT22;24356;48.460;11.450;2022-08-02T12:57:13;28.90;62.00
38592;DHT22;24356;48.460;11.450;2022-08-02T12:59:41;29.10;61.60
38592;DHT22;24356;48.460;11.450;2022-08-02T13:02:10;29.30;61.50
38592;DHT22;24356;48.460;11.450;2022-08-02T13:04:36;29.40;60.80
38592;DHT22;24356;48.460;11.450;2022-08-02T13:07:03;29.70;60.80
38592;DHT22;24356;48.460;11.450;2022-08-02T13:09:38;29.90;60.60
38592;DHT22;24356;48.460;11.450;2022-08-02T13:12:05;30.10;60.50
38592;DHT22;24356;48.460;11.450;2022-08-02T13:14:32;30.30;60.10
38592;DHT22;24356;48.460;11.450;2022-08-02T13:16:57;30.40;60.00
38592;DHT22;24356;48.460;11.450;2022-08-02T13:19:23;30.60;59.80
38592;DHT22;24356;48.460;11.450;2022-08-02T13:21:49;30.70;59.80
38592;DHT22;24356;48.460;11.450;2022-08-02T13:24:16;30.90;59.50
38592;DHT22;24356;48.460;11.450;2022-08-02T13:26:43;31.10;59.00
38592;DHT22;24356;48.460;11.450;2022-08-02T13:29:10;31.20;58.90
38592;DHT22;24356;48.460;11.450;2022-08-02T13:31:36;31.30;58.80
38592;DHT22;24356;48.460;11.450;2022-08-02T13:34:07;31.50;58.70
38592;DHT22;24356;48.460;11.450;2022-08-02T13:36:34;31.60;58.50
38592;DHT22;24356;48.460;11.450;2022-08-02T13:39:04;31.80;58.00
38592;DHT22;24356;48.460;11.450;2022-08-02T13:41:30;31.80;57.90
38592;DHT22;24356;48.460;11.450;2022-08-02T13:43:56;31.80;57.40
38592;DHT22;24356;48.460;11.450;2022-08-02T13:46:22;31.70;57.70
38592;DHT22;24356;48.460;11.450;2022-08-02T13:48:47;31.80;57.80
38592;DHT22;24356;48.460;11.450;2022-08-02T13:51:13;31.80;57.40
38592;DHT22;24356;48.460;11.450;2022-08-02T13:53:39;31.90;57.80
38592;DHT22;24356;48.460;11.450;2022-08-02T13:56:05;32.00;57.50
38592;DHT22;24356;48.460;11.450;2022-08-02T13:58:33;32.10;57.70
38592;DHT22;24356;48.460;11.450;2022-08-02T14:00:59;32.30;57.60
38592;DHT22;24356;48.460;11.450;2022-08-02T14:03:25;32.40;57.50
38592;DHT22;24356;48.460;11.450;2022-08-02T14:05:50;32.60;57.50
38592;DHT22;24356;48.460;11.450;2022-08-02T14:08:18;32.70;57.50
38592;DHT22;24356;48.460;11.450;2022-08-02T14:10:47;32.80;57.00
38592;DHT22;24356;48.460;11.450;2022-08-02T14:13:13;32.80;56.40
38592;DHT22;24356;48.460;11.450;2022-08-02T14:15:38;32.80;56.20
38592;DHT22;24356;48.460;11.450;2022-08-02T14:18:04;32.70;56.60
38592;DHT22;24356;48.460;11.450;2022-08-02T14:20:30;32.70;56.60
38592;DHT22;24356;48.460;11.450;2022-08-02T14:22:55;32.70;56.60
38592;DHT22;24356;48.460;11.450;2022-08-02T14:25:21;32.80;56.30
38592;DHT22;24356;48.460;11.450;2022-08-02T14:27:47;32.80;56.40
38592;DHT22;24356;48.460;11.450;2022-08-02T14:30:13;32.70;55.80
38592;DHT22;24356;48.460;11.450;2022-08-02T14:32:39;32.60;56.00
38592;DHT22;24356;48.460;11.450;2022-08-02T14:35:05;32.40;56.10
38592;DHT22;24356;48.460;11.450;2022-08-02T14:37:30;32.20;56.40
38592;DHT22;24356;48.460;11.450;2022-08-02T14:39:57;32.00;56.90
38592;DHT22;24356;48.460;11.450;2022-08-02T14:42:22;31.80;57.10
38592;DHT22;24356;48.460;11.450;2022-08-02T14:44:48;31.60;57.00
38592;DHT22;24356;48.460;11.450;2022-08-02T14:47:14;31.40;57.90
38592;DHT22;24356;48.460;11.450;2022-08-02T14:49:40;31.20;58.30
38592;DHT22;24356;48.460;11.450;2022-08-02T14:52:06;31.10;58.60
38592;DHT22;24356;48.460;11.450;2022-08-02T14:54:31;30.90;59.30
38592;DHT22;24356;48.460;11.450;2022-08-02T14:56:59;30.90;60.40
38592;DHT22;24356;48.460;11.450;2022-08-02T14:59:26;30.90;60.80
38592;DHT22;24356;48.460;11.450;2022-08-02T15:01:51;30.90;61.90
38592;DHT22;24356;48.460;11.450;2022-08-02T15:04:17;31.10;61.90
38592;DHT22;24356;48.460;11.450;2022-08-02T15:06:43;31.20;61.70
38592;DHT22;24356;48.460;11.450;2022-08-02T15:09:08;31.40;61.50
38592;DHT22;24356;48.460;11.450;2022-08-02T15:11:34;31.50;61.70
38592;DHT22;24356;48.460;11.450;2022-08-02T15:14:01;31.70;61.10
38592;DHT22;24356;48.460;11.450;2022-08-02T15:16:27;31.90;59.30
38592;DHT22;24356;48.460;11.450;2022-08-02T15:18:55;32.00;58.70
38592;DHT22;24356;48.460;11.450;2022-08-02T15:21:20;32.10;59.70
38592;DHT22;24356;48.460;11.450;2022-08-02T15:23:46;32.20;58.40
38592;DHT22;24356;48.460;11.450;2022-08-02T15:26:11;32.20;57.70
38592;DHT22;24356;48.460;11.450;2022-08-02T15:28:37;32.20;57.40
38592;DHT22;24356;48.460;11.450;2022-08-02T15:31:03;32.10;57.80
38592;DHT22;24356;48.460;11.450;2022-08-02T15:33:29;32.00;57.60
38592;DHT22;24356;48.460;11.450;2022-08-02T15:35:54;31.80;57.90
38592;DHT22;24356;48.460;11.450;2022-08-02T15:38:21;31.70;58.10
38592;DHT22;24356;48.460;11.450;2022-08-02T15:40:47;31.70;58.90
38592;DHT22;24356;48.460;11.450;2022-08-02T15:43:13;31.70;59.60
38592;DHT22;24356;48.460;11.450;2022-08-02T15:45:39;31.70;59.10
38592;DHT22;24356;48.460;11.450;2022-08-02T15:48:05;31.80;58.70